sensor_id;sensor_type;location;lat;lon;timestamp;temperature;humidity
51029;DHT22;37054;52.054;8.600;2022-10-10T00:01:38;12.30;52.50
51029;DHT22;37054;52.054;8.600;2022-10-10T00:04:03;12.30;52.60
51029;DHT22;37054;52.054;8.600;2022-10-10T00:06:29;12.30;52.50
51029;DHT22;37054;52.054;8.600;2022-10-10T00:08:54;12.30;52.40
51029;DHT22;37054;52.054;8.600;2022-10-10T00:11:21;12.20;52.50
51029;DHT22;37054;52.054;8.600;2022-10-10T00:13:47;12.20;52.40
51029;DHT22;37054;52.054;8.600;2022-10-10T00:16:12;12.10;52.30
51029;DHT22;37054;52.054;8.600;2022-10-10T00:18:38;12.10;52.30
51029;DHT22;37054;52.054;8.600;2022-10-10T00:21:04;12.10;52.50
51029;DHT22;37054;52.054;8.600;2022-10-10T00:23:30;12.10;53.30
51029;DHT22;37054;52.054;8.600;2022-10-10T00:25:55;12.10;53.60
51029;DHT22;37054;52.054;8.600;2022-10-10T00:28:21;12.20;54.10
51029;DHT22;37054;52.054;8.600;2022-10-10T00:30:47;12.30;54.60
51029;DHT22;37054;52.054;8.600;2022-10-10T00:33:12;12.50;54.60
51029;DHT22;37054;52.054;8.600;2022-10-10T00:35:38;12.60;54.60
51029;DHT22;37054;52.054;8.600;2022-10-10T00:38:04;12.70;54.80
51029;DHT22;37054;52.054;8.600;2022-10-10T00:40:29;12.80;54.70
51029;DHT22;37054;52.054;8.600;2022-10-10T00:42:55;12.90;54.60
51029;DHT22;37054;52.054;8.600;2022-10-10T00:47:50;13.10;54.30
51029;DHT22;37054;52.054;8.600;2022-10-10T00:50:17;13.20;54.20
51029;DHT22;37054;52.054;8.600;2022-10-10T00:52:43;13.30;54.20
51029;DHT22;37054;52.054;8.600;2022-10-10T00:55:09;13.30;54.30
51029;DHT22;37054;52.054;8.600;2022-10-10T00:57:35;13.50;54.10
51029;DHT22;37054;52.054;8.600;2022-10-10T01:00:02;13.50;54.10
51029;DHT22;37054;52.054;8.600;2022-10-10T01:02:27;13.70;54.00
51029;DHT22;37054;52.054;8.600;2022-10-10T01:04:53;13.80;53.80
51029;DHT22;37054;52.054;8.600;2022-10-10T01:07:23;13.80;53.70
51029;DHT22;37054;52.054;8.600;2022-10-10T01:09:50;13.90;53.60
51029;DHT22;37054;52.054;8.600;2022-10-10T01:12:19;14.00;53.30
51029;DHT22;37054;52.054;8.600;2022-10-10T01:17:39;14.20;53.00
51029;DHT22;37054;52.054;8.600;2022-10-10T01:28:00;14.30;52.40
51029;DHT22;37054;52.054;8.600;2022-10-10T01:30:27;14.30;52.30
51029;DHT22;37054;52.054;8.600;2022-10-10T01:33:12;14.30;52.20
51029;DHT22;37054;52.054;8.600;2022-10-10T01:35:56;14.30;52.10
51029;DHT22;37054;52.054;8.600;2022-10-10T01:41:07;14.40;52.10
51029;DHT22;37054;52.054;8.600;2022-10-10T01:43:35;14.40;51.90
51029;DHT22;37054;52.054;8.600;2022-10-10T01:46:10;14.40;51.90
51029;DHT22;37054;52.054;8.600;2022-10-10T01:48:36;14.40;51.70
51029;DHT22;37054;52.054;8.600;2022-10-10T01:56:09;14.50;51.50
51029;DHT22;37054;52.054;8.600;2022-10-10T02:01:15;14.30;50.60
51029;DHT22;37054;52.054;8.600;2022-10-10T02:03:44;14.10;50.30
51029;DHT22;37054;52.054;8.600;2022-10-10T02:06:19;13.80;50.40
51029;DHT22;37054;52.054;8.600;2022-10-10T02:08:47;13.60;50.40
51029;DHT22;37054;52.054;8.600;2022-10-10T02:11:15;13.40;50.40
51029;DHT22;37054;52.054;8.600;2022-10-10T02:13:51;13.30;50.50
51029;DHT22;37054;52.054;8.600;2022-10-10T02:16:23;13.10;50.70
51029;DHT22;37054;52.054;8.600;2022-10-10T02:18:50;12.90;50.90
51029;DHT22;37054;52.054;8.600;2022-10-10T02:21:17;12.70;51.00
51029;DHT22;37054;52.054;8.600;2022-10-10T02:23:44;12.60;51.20
51029;DHT22;37054;52.054;8.600;2022-10-10T02:26:11;12.50;51.50
51029;DHT22;37054;52.054;8.600;2022-10-10T02:28:52;12.40;51.70
51029;DHT22;37054;52.054;8.600;2022-10-10T02:31:22;12.40;51.90
51029;DHT22;37054;52.054;8.600;2022-10-10T02:33:50;12.30;52.20
51029;DHT22;37054;52.054;8.600;2022-10-10T02:36:18;12.20;52.30
51029;DHT22;37054;52.054;8.600;2022-10-10T02:38:44;12.20;52.30
51029;DHT22;37054;52.054;8.600;2022-10-10T02:41:11;12.10;52.40
51029;DHT22;37054;52.054;8.600;2022-10-10T02:43:37;12.00;52.50
51029;DHT22;37054;52.054;8.600;2022-10-10T02:46:03;12.00;52.70
51029;DHT22;37054;52.054;8.600;2022-10-10T02:48:30;12.00;52.70
51029;DHT22;37054;52.054;8.600;2022-10-10T02:50:55;12.00;52.70
51029;DHT22;37054;52.054;8.600;2022-10-10T02:53:21;11.90;52.80
51029;DHT22;37054;52.054;8.600;2022-10-10T02:55:46;11.90;53.00
51029;DHT22;37054;52.054;8.600;2022-10-10T02:58:12;11.80;53.20
51029;DHT22;37054;52.054;8.600;2022-10-10T03:00:38;11.80;53.20
51029;DHT22;37054;52.054;8.600;2022-10-10T03:03:04;11.80;53.30
51029;DHT22;37054;52.054;8.600;2022-10-10T03:05:29;11.80;53.50
51029;DHT22;37054;52.054;8.600;2022-10-10T03:07:55;11.80;53.50
51029;DHT22;37054;52.054;8.600;2022-10-10T03:10:20;11.80;53.60
51029;DHT22;37054;52.054;8.600;2022-10-10T03:12:46;11.70;53.60
51029;DHT22;37054;52.054;8.600;2022-10-10T03:15:11;11.70;53.70
51029;DHT22;37054;52.054;8.600;2022-10-10T03:17:37;11.70;53.60
51029;DHT22;37054;52.054;8.600;2022-10-10T03:20:02;11.70;53.70
51029;DHT22;37054;52.054;8.600;2022-10-10T03:22:28;11.70;53.60
51029;DHT22;37054;52.054;8.600;2022-10-10T03:24:53;11.70;53.60
51029;DHT22;37054;52.054;8.600;2022-10-10T03:27:19;11.60;53.80
51029;DHT22;37054;52.054;8.600;2022-10-10T03:29:45;11.60;54.10
51029;DHT22;37054;52.054;8.600;2022-10-10T03:32:10;11.60;54.40
51029;DHT22;37054;52.054;8.600;2022-10-10T03:34:36;11.70;54.90
51029;DHT22;37054;52.054;8.600;2022-10-10T03:37:01;11.70;54.90
51029;DHT22;37054;52.054;8.600;2022-10-10T03:39:27;11.70;54.90
51029;DHT22;37054;52.054;8.600;2022-10-10T03:41:52;11.70;54.90
51029;DHT22;37054;52.054;8.600;2022-10-10T03:44:18;11.70;54.90
51029;DHT22;37054;52.054;8.600;2022-10-10T03:46:43;11.80;54.80
51029;DHT22;37054;52.054;8.600;2022-10-10T03:49:09;11.70;54.50
51029;DHT22;37054;52.054;8.600;2022-10-10T03:51:34;11.70;54.40
51029;DHT22;37054;52.054;8.600;2022-10-10T03:54:00;11.60;54.30
51029;DHT22;37054;52.054;8.600;2022-10-10T03:56:25;11.60;54.40
51029;DHT22;37054;52.054;8.600;2022-10-10T03:58:51;11.60;54.80
51029;DHT22;37054;52.054;8.600;2022-10-10T04:01:16;11.60;54.90
51029;DHT22;37054;52.054;8.600;2022-10-10T04:03:42;11.50;54.90
51029;DHT22;37054;52.054;8.600;2022-10-10T04:06:08;11.60;55.00
51029;DHT22;37054;52.054;8.600;2022-10-10T04:08:33;11.60;55.10
51029;DHT22;37054;52.054;8.600;2022-10-10T04:10:59;11.50;55.30
51029;DHT22;37054;52.054;8.600;2022-10-10T04:13:24;11.60;55.50
51029;DHT22;37054;52.054;8.600;2022-10-10T04:15:52;11.60;55.70
51029;DHT22;37054;52.054;8.600;2022-10-10T04:18:20;11.60;55.70
51029;DHT22;37054;52.054;8.600;2022-10-10T04:20:46;11.60;55.40
51029;DHT22;37054;52.054;8.600;2022-10-10T04:23:12;11.60;55.20
51029;DHT22;37054;52.054;8.600;2022-10-10T04:25:38;11.60;55.10
51029;DHT22;37054;52.054;8.600;2022-10-10T04:28:03;11.60;55.00
51029;DHT22;37054;52.054;8.600;2022-10-10T04:30:31;11.60;55.10
51029;DHT22;37054;52.054;8.600;2022-10-10T04:32:56;11.60;55.40
51029;DHT22;37054;52.054;8.600;2022-10-10T04:35:22;11.60;55.40
51029;DHT22;37054;52.054;8.600;2022-10-10T04:37:48;11.60;55.30
51029;DHT22;37054;52.054;8.600;2022-10-10T04:40:14;11.50;55.20
51029;DHT22;37054;52.054;8.600;2022-10-10T04:42:40;11.50;55.20
51029;DHT22;37054;52.054;8.600;2022-10-10T04:45:05;11.50;55.20
51029;DHT22;37054;52.054;8.600;2022-10-10T04:47:31;11.40;55.00
51029;DHT22;37054;52.054;8.600;2022-10-10T04:49:57;11.40;55.20
51029;DHT22;37054;52.054;8.600;2022-10-10T04:52:23;11.40;55.20
51029;DHT22;37054;52.054;8.600;2022-10-10T04:54:49;11.40;55.10
51029;DHT22;37054;52.054;8.600;2022-10-10T04:57:15;11.40;54.90
51029;DHT22;37054;52.054;8.600;2022-10-10T04:59:41;11.30;54.80
51029;DHT22;37054;52.054;8.600;2022-10-10T05:02:09;11.30;54.80
51029;DHT22;37054;52.054;8.600;2022-10-10T05:04:35;11.20;54.70
51029;DHT22;37054;52.054;8.600;2022-10-10T05:07:01;11.30;54.70
51029;DHT22;37054;52.054;8.600;2022-10-10T05:09:26;11.20;55.00
51029;DHT22;37054;52.054;8.600;2022-10-10T05:11:52;11.20;55.20
51029;DHT22;37054;52.054;8.600;2022-10-10T05:14:17;11.20;55.10
51029;DHT22;37054;52.054;8.600;2022-10-10T05:16:43;11.20;55.10
51029;DHT22;37054;52.054;8.600;2022-10-10T05:19:17;11.10;55.00
51029;DHT22;37054;52.054;8.600;2022-10-10T05:21:42;11.10;55.30
51029;DHT22;37054;52.054;8.600;2022-10-10T05:24:08;11.10;55.30
51029;DHT22;37054;52.054;8.600;2022-10-10T05:26:37;11.10;55.40
51029;DHT22;37054;52.054;8.600;2022-10-10T05:29:02;11.10;55.40
51029;DHT22;37054;52.054;8.600;2022-10-10T05:31:28;11.10;55.30
51029;DHT22;37054;52.054;8.600;2022-10-10T05:33:56;11.10;55.20
51029;DHT22;37054;52.054;8.600;2022-10-10T05:38:58;11.00;55.10
51029;DHT22;37054;52.054;8.600;2022-10-10T05:41:26;11.00;55.00
51029;DHT22;37054;52.054;8.600;2022-10-10T05:43:51;11.00;54.70
51029;DHT22;37054;52.054;8.600;2022-10-10T05:46:17;10.90;54.60
51029;DHT22;37054;52.054;8.600;2022-10-10T05:48:44;10.80;54.60
51029;DHT22;37054;52.054;8.600;2022-10-10T05:51:10;10.80;54.60
51029;DHT22;37054;52.054;8.600;2022-10-10T05:53:37;10.80;54.70
51029;DHT22;37054;52.054;8.600;2022-10-10T05:56:03;10.80;54.70
51029;DHT22;37054;52.054;8.600;2022-10-10T05:58:31;10.80;55.20
51029;DHT22;37054;52.054;8.600;2022-10-10T06:01:00;10.80;55.50
51029;DHT22;37054;52.054;8.600;2022-10-10T06:03:26;10.90;55.90
51029;DHT22;37054;52.054;8.600;2022-10-10T06:05:52;11.10;56.70
51029;DHT22;37054;52.054;8.600;2022-10-10T06:08:19;11.50;57.30
51029;DHT22;37054;52.054;8.600;2022-10-10T06:10:45;11.80;57.90
51029;DHT22;37054;52.054;8.600;2022-10-10T06:13:11;12.10;58.40
51029;DHT22;37054;52.054;8.600;2022-10-10T06:15:37;12.50;58.80
51029;DHT22;37054;52.054;8.600;2022-10-10T06:18:02;12.90;59.00
51029;DHT22;37054;52.054;8.600;2022-10-10T06:20:28;13.30;59.10
51029;DHT22;37054;52.054;8.600;2022-10-10T06:22:54;13.70;59.20
51029;DHT22;37054;52.054;8.600;2022-10-10T06:25:21;14.20;58.90
51029;DHT22;37054;52.054;8.600;2022-10-10T06:27:47;14.60;58.80
51029;DHT22;37054;52.054;8.600;2022-10-10T06:30:13;15.00;58.60
51029;DHT22;37054;52.054;8.600;2022-10-10T06:32:38;15.40;58.40
51029;DHT22;37054;52.054;8.600;2022-10-10T06:35:04;15.80;58.20
51029;DHT22;37054;52.054;8.600;2022-10-10T06:37:30;16.30;58.10
51029;DHT22;37054;52.054;8.600;2022-10-10T06:39:55;16.70;57.80
51029;DHT22;37054;52.054;8.600;2022-10-10T06:42:24;17.20;57.00
51029;DHT22;37054;52.054;8.600;2022-10-10T06:44:49;17.70;56.00
51029;DHT22;37054;52.054;8.600;2022-10-10T06:47:15;18.10;55.50
51029;DHT22;37054;52.054;8.600;2022-10-10T06:49:41;18.50;54.80
51029;DHT22;37054;52.054;8.600;2022-10-10T06:52:07;18.80;53.90
51029;DHT22;37054;52.054;8.600;2022-10-10T06:54:32;19.20;52.90
51029;DHT22;37054;52.054;8.600;2022-10-10T06:56:58;19.60;53.10
51029;DHT22;37054;52.054;8.600;2022-10-10T06:59:23;20.00;52.50
51029;DHT22;37054;52.054;8.600;2022-10-10T07:01:49;20.40;51.90
51029;DHT22;37054;52.054;8.600;2022-10-10T07:04:15;20.90;51.00
51029;DHT22;37054;52.054;8.600;2022-10-10T07:06:40;21.30;50.10
51029;DHT22;37054;52.054;8.600;2022-10-10T07:09:08;21.70;48.70
51029;DHT22;37054;52.054;8.600;2022-10-10T07:11:34;22.00;47.80
51029;DHT22;37054;52.054;8.600;2022-10-10T07:14:02;22.30;45.50
51029;DHT22;37054;52.054;8.600;2022-10-10T07:16:30;22.60;44.70
51029;DHT22;37054;52.054;8.600;2022-10-10T07:18:58;22.90;43.90
51029;DHT22;37054;52.054;8.600;2022-10-10T07:21:23;23.20;43.00
51029;DHT22;37054;52.054;8.600;2022-10-10T07:23:49;23.50;42.50
51029;DHT22;37054;52.054;8.600;2022-10-10T07:26:14;23.80;42.00
51029;DHT22;37054;52.054;8.600;2022-10-10T07:28:45;24.20;41.10
51029;DHT22;37054;52.054;8.600;2022-10-10T07:31:10;24.50;40.20
51029;DHT22;37054;52.054;8.600;2022-10-10T07:33:40;24.70;38.80
51029;DHT22;37054;52.054;8.600;2022-10-10T07:36:06;24.90;37.70
51029;DHT22;37054;52.054;8.600;2022-10-10T07:38:32;25.00;37.90
51029;DHT22;37054;52.054;8.600;2022-10-10T07:40:57;25.30;37.10
51029;DHT22;37054;52.054;8.600;2022-10-10T07:43:23;25.60;36.50
51029;DHT22;37054;52.054;8.600;2022-10-10T07:45:49;25.90;35.70
51029;DHT22;37054;52.054;8.600;2022-10-10T07:48:14;26.10;35.30
51029;DHT22;37054;52.054;8.600;2022-10-10T07:50:40;26.20;35.00
51029;DHT22;37054;52.054;8.600;2022-10-10T07:53:07;26.30;34.20
51029;DHT22;37054;52.054;8.600;2022-10-10T07:55:32;26.50;34.90
51029;DHT22;37054;52.054;8.600;2022-10-10T07:57:59;26.90;34.90
51029;DHT22;37054;52.054;8.600;2022-10-10T08:00:28;27.30;34.70
51029;DHT22;37054;52.054;8.600;2022-10-10T08:02:53;27.70;33.30
51029;DHT22;37054;52.054;8.600;2022-10-10T08:05:19;28.00;32.80
51029;DHT22;37054;52.054;8.600;2022-10-10T08:07:45;28.20;32.00
51029;DHT22;37054;52.054;8.600;2022-10-10T08:10:10;28.30;31.80
51029;DHT22;37054;52.054;8.600;2022-10-10T08:12:36;28.50;31.40
51029;DHT22;37054;52.054;8.600;2022-10-10T08:15:03;28.70;31.50
51029;DHT22;37054;52.054;8.600;2022-10-10T08:17:28;28.90;31.10
51029;DHT22;37054;52.054;8.600;2022-10-10T08:19:54;29.20;30.80
51029;DHT22;37054;52.054;8.600;2022-10-10T08:22:20;29.40;30.50
51029;DHT22;37054;52.054;8.600;2022-10-10T08:24:45;29.50;30.20
51029;DHT22;37054;52.054;8.600;2022-10-10T08:27:11;29.60;29.80
51029;DHT22;37054;52.054;8.600;2022-10-10T08:29:38;29.70;29.40
51029;DHT22;37054;52.054;8.600;2022-10-10T08:32:04;29.70;29.10
51029;DHT22;37054;52.054;8.600;2022-10-10T08:34:30;29.70;29.10
51029;DHT22;37054;52.054;8.600;2022-10-10T08:36:55;29.90;28.80
51029;DHT22;37054;52.054;8.600;2022-10-10T08:39:21;30.00;29.20
51029;DHT22;37054;52.054;8.600;2022-10-10T08:41:47;30.20;28.80
51029;DHT22;37054;52.054;8.600;2022-10-10T08:47:01;30.40;28.70
51029;DHT22;37054;52.054;8.600;2022-10-10T08:51:58;30.80;29.10
51029;DHT22;37054;52.054;8.600;2022-10-10T08:54:24;31.10;28.50
51029;DHT22;37054;52.054;8.600;2022-10-10T08:56:52;31.30;28.20
51029;DHT22;37054;52.054;8.600;2022-10-10T08:59:23;31.50;27.50
51029;DHT22;37054;52.054;8.600;2022-10-10T09:01:50;31.70;27.90
51029;DHT22;37054;52.054;8.600;2022-10-10T09:04:17;31.90;27.50
51029;DHT22;37054;52.054;8.600;2022-10-10T09:06:51;32.10;27.50
51029;DHT22;37054;52.054;8.600;2022-10-10T09:09:35;32.40;27.40
51029;DHT22;37054;52.054;8.600;2022-10-10T09:12:20;32.80;27.30
51029;DHT22;37054;52.054;8.600;2022-10-10T09:14:55;33.00;27.00
51029;DHT22;37054;52.054;8.600;2022-10-10T09:17:28;33.10;26.20
51029;DHT22;37054;52.054;8.600;2022-10-10T09:22:26;33.30;25.80
51029;DHT22;37054;52.054;8.600;2022-10-10T09:24:58;33.20;25.60
51029;DHT22;37054;52.054;8.600;2022-10-10T09:27:28;33.20;25.90
51029;DHT22;37054;52.054;8.600;2022-10-10T09:40:42;32.70;25.30
51029;DHT22;37054;52.054;8.600;2022-10-10T09:43:14;32.40;25.30
51029;DHT22;37054;52.054;8.600;2022-10-10T09:45:43;32.20;25.70
51029;DHT22;37054;52.054;8.600;2022-10-10T09:48:13;32.10;26.30
51029;DHT22;37054;52.054;8.600;2022-10-10T09:50:39;32.00;26.60
51029;DHT22;37054;52.054;8.600;2022-10-10T09:53:05;32.00;26.50
51029;DHT22;37054;52.054;8.600;2022-10-10T09:55:35;32.00;26.50
51029;DHT22;37054;52.054;8.600;2022-10-10T09:58:09;32.00;26.20
51029;DHT22;37054;52.054;8.600;2022-10-10T10:00:37;32.00;26.30
51029;DHT22;37054;52.054;8.600;2022-10-10T10:03:04;32.10;26.00
51029;DHT22;37054;52.054;8.600;2022-10-10T10:05:29;32.00;25.90
51029;DHT22;37054;52.054;8.600;2022-10-10T10:07:55;32.00;25.90
51029;DHT22;37054;52.054;8.600;2022-10-10T10:10:21;31.80;25.80
51029;DHT22;37054;52.054;8.600;2022-10-10T10:12:48;31.80;26.10
51029;DHT22;37054;52.054;8.600;2022-10-10T10:15:24;31.80;26.20
51029;DHT22;37054;52.054;8.600;2022-10-10T10:20:36;32.00;26.30
51029;DHT22;37054;52.054;8.600;2022-10-10T10:23:02;32.10;26.30
51029;DHT22;37054;52.054;8.600;2022-10-10T10:25:32;32.20;25.80
51029;DHT22;37054;52.054;8.600;2022-10-10T10:30:38;32.50;25.80
51029;DHT22;37054;52.054;8.600;2022-10-10T10:33:07;32.60;25.90
51029;DHT22;37054;52.054;8.600;2022-10-10T10:35:57;32.70;25.70
51029;DHT22;37054;52.054;8.600;2022-10-10T10:38:33;32.70;25.30
51029;DHT22;37054;52.054;8.600;2022-10-10T10:41:15;32.70;25.40
51029;DHT22;37054;52.054;8.600;2022-10-10T10:49:14;32.80;25.30
51029;DHT22;37054;52.054;8.600;2022-10-10T10:52:01;33.00;25.60
51029;DHT22;37054;52.054;8.600;2022-10-10T10:57:10;33.20;25.10
51029;DHT22;37054;52.054;8.600;2022-10-10T11:02:40;33.50;25.00
51029;DHT22;37054;52.054;8.600;2022-10-10T11:07:46;33.70;24.10
51029;DHT22;37054;52.054;8.600;2022-10-10T11:10:18;33.80;24.00
51029;DHT22;37054;52.054;8.600;2022-10-10T11:12:52;33.70;23.70
51029;DHT22;37054;52.054;8.600;2022-10-10T11:15:33;33.70;23.80
51029;DHT22;37054;52.054;8.600;2022-10-10T11:18:02;33.80;23.80
51029;DHT22;37054;52.054;8.600;2022-10-10T11:23:04;33.80;23.80
51029;DHT22;37054;52.054;8.600;2022-10-10T11:25:32;33.80;23.70
51029;DHT22;37054;52.054;8.600;2022-10-10T11:28:03;33.70;23.70
51029;DHT22;37054;52.054;8.600;2022-10-10T11:30:32;33.70;23.70
51029;DHT22;37054;52.054;8.600;2022-10-10T11:33:15;33.70;23.50
51029;DHT22;37054;52.054;8.600;2022-10-10T11:38:34;33.60;23.40
51029;DHT22;37054;52.054;8.600;2022-10-10T11:43:33;33.30;23.40
51029;DHT22;37054;52.054;8.600;2022-10-10T11:46:04;33.10;23.40
51029;DHT22;37054;52.054;8.600;2022-10-10T11:51:20;32.70;24.20
51029;DHT22;37054;52.054;8.600;2022-10-10T11:53:48;32.80;24.40
51029;DHT22;37054;52.054;8.600;2022-10-10T11:56:30;32.70;24.20
51029;DHT22;37054;52.054;8.600;2022-10-10T11:58:59;32.60;24.10
51029;DHT22;37054;52.054;8.600;2022-10-10T12:01:30;32.50;24.20
51029;DHT22;37054;52.054;8.600;2022-10-10T12:03:58;32.50;23.60
51029;DHT22;37054;52.054;8.600;2022-10-10T12:06:29;32.30;23.50
51029;DHT22;37054;52.054;8.600;2022-10-10T12:08:58;32.20;23.70
51029;DHT22;37054;52.054;8.600;2022-10-10T12:13:55;32.30;24.00
51029;DHT22;37054;52.054;8.600;2022-10-10T12:16:22;32.30;24.10
51029;DHT22;37054;52.054;8.600;2022-10-10T12:21:24;32.60;23.80
51029;DHT22;37054;52.054;8.600;2022-10-10T12:34:39;32.20;24.60
51029;DHT22;37054;52.054;8.600;2022-10-10T12:37:18;31.80;24.70
51029;DHT22;37054;52.054;8.600;2022-10-10T12:47:48;31.00;25.40
51029;DHT22;37054;52.054;8.600;2022-10-10T12:50:23;30.80;25.50
51029;DHT22;37054;52.054;8.600;2022-10-10T12:52:53;30.50;25.70
51029;DHT22;37054;52.054;8.600;2022-10-10T12:55:20;30.30;26.00
51029;DHT22;37054;52.054;8.600;2022-10-10T12:57:47;30.20;26.20
51029;DHT22;37054;52.054;8.600;2022-10-10T13:00:18;29.90;26.30
51029;DHT22;37054;52.054;8.600;2022-10-10T13:02:48;29.80;26.60
51029;DHT22;37054;52.054;8.600;2022-10-10T13:05:17;29.60;26.80
51029;DHT22;37054;52.054;8.600;2022-10-10T13:07:43;29.40;26.90
51029;DHT22;37054;52.054;8.600;2022-10-10T13:10:24;29.30;27.20
51029;DHT22;37054;52.054;8.600;2022-10-10T13:15:34;29.10;26.90
51029;DHT22;37054;52.054;8.600;2022-10-10T13:18:00;28.90;27.20
51029;DHT22;37054;52.054;8.600;2022-10-10T13:20:29;28.90;27.40
51029;DHT22;37054;52.054;8.600;2022-10-10T13:22:56;28.80;27.40
51029;DHT22;37054;52.054;8.600;2022-10-10T13:25:21;28.80;27.60
51029;DHT22;37054;52.054;8.600;2022-10-10T13:27:51;28.80;27.60
51029;DHT22;37054;52.054;8.600;2022-10-10T13:30:20;28.80;27.80
51029;DHT22;37054;52.054;8.600;2022-10-10T13:32:46;28.70;28.00
51029;DHT22;37054;52.054;8.600;2022-10-10T13:35:12;28.80;28.10
51029;DHT22;37054;52.054;8.600;2022-10-10T13:37:45;28.70;28.10
51029;DHT22;37054;52.054;8.600;2022-10-10T13:40:15;28.70;28.20
51029;DHT22;37054;52.054;8.600;2022-10-10T13:42:41;28.70;28.30
51029;DHT22;37054;52.054;8.600;2022-10-10T13:47:51;28.70;28.60
51029;DHT22;37054;52.054;8.600;2022-10-10T13:50:18;28.70;28.70
51029;DHT22;37054;52.054;8.600;2022-10-10T13:52:44;28.70;28.80
51029;DHT22;37054;52.054;8.600;2022-10-10T13:57:44;28.60;28.90
51029;DHT22;37054;52.054;8.600;2022-10-10T14:00:14;28.60;28.70
51029;DHT22;37054;52.054;8.600;2022-10-10T14:02:40;28.50;28.30
51029;DHT22;37054;52.054;8.600;2022-10-10T14:05:07;28.50;28.30
51029;DHT22;37054;52.054;8.600;2022-10-10T14:07:36;28.50;28.20
51029;DHT22;37054;52.054;8.600;2022-10-10T14:10:05;28.40;28.10
51029;DHT22;37054;52.054;8.600;2022-10-10T14:12:39;28.30;28.10
51029;DHT22;37054;52.054;8.600;2022-10-10T14:15:29;28.20;28.00
51029;DHT22;37054;52.054;8.600;2022-10-10T14:17:52;28.10;28.10
51029;DHT22;37054;52.054;8.600;2022-10-10T14:20:17;28.10;28.10
51029;DHT22;37054;52.054;8.600;2022-10-10T14:22:43;28.10;27.90
51029;DHT22;37054;52.054;8.600;2022-10-10T14:25:09;28.10;27.90
51029;DHT22;37054;52.054;8.600;2022-10-10T14:27:34;28.00;28.00
51029;DHT22;37054;52.054;8.600;2022-10-10T14:30:00;28.00;28.10
51029;DHT22;37054;52.054;8.600;2022-10-10T14:32:25;27.90;28.10
51029;DHT22;37054;52.054;8.600;2022-10-10T14:34:51;27.80;28.00
51029;DHT22;37054;52.054;8.600;2022-10-10T14:37:26;27.80;28.00
51029;DHT22;37054;52.054;8.600;2022-10-10T14:39:52;27.70;28.10
51029;DHT22;37054;52.054;8.600;2022-10-10T14:42:18;27.60;28.20
51029;DHT22;37054;52.054;8.600;2022-10-10T14:44:44;27.50;28.20
51029;DHT22;37054;52.054;8.600;2022-10-10T14:47:18;27.50;28.40
51029;DHT22;37054;52.054;8.600;2022-10-10T14:49:44;27.50;28.50
51029;DHT22;37054;52.054;8.600;2022-10-10T14:52:09;27.40;28.70
51029;DHT22;37054;52.054;8.600;2022-10-10T14:54:35;27.40;28.90
51029;DHT22;37054;52.054;8.600;2022-10-10T14:57:00;27.40;29.00
51029;DHT22;37054;52.054;8.600;2022-10-10T14:59:26;27.30;28.60
51029;DHT22;37054;52.054;8.600;2022-10-10T15:01:51;27.30;28.40
51029;DHT22;37054;52.054;8.600;2022-10-10T15:04:17;27.20;28.60
51029;DHT22;37054;52.054;8.600;2022-10-10T15:06:42;27.10;28.70
51029;DHT22;37054;52.054;8.600;2022-10-10T15:09:09;27.00;28.80
51029;DHT22;37054;52.054;8.600;2022-10-10T15:11:35;26.90;29.00
51029;DHT22;37054;52.054;8.600;2022-10-10T15:14:00;26.80;29.10
51029;DHT22;37054;52.054;8.600;2022-10-10T15:16:26;26.80;29.20
51029;DHT22;37054;52.054;8.600;2022-10-10T15:18:51;26.70;29.40
51029;DHT22;37054;52.054;8.600;2022-10-10T15:21:17;26.50;29.60
51029;DHT22;37054;52.054;8.600;2022-10-10T15:23:42;26.40;29.80
51029;DHT22;37054;52.054;8.600;2022-10-10T15:26:08;26.40;30.00
51029;DHT22;37054;52.054;8.600;2022-10-10T15:28:33;26.30;30.20
51029;DHT22;37054;52.054;8.600;2022-10-10T15:30:59;26.30;30.40
51029;DHT22;37054;52.054;8.600;2022-10-10T15:33:24;26.20;30.60
51029;DHT22;37054;52.054;8.600;2022-10-10T15:35:56;26.10;30.70
51029;DHT22;37054;52.054;8.600;2022-10-10T15:38:22;26.00;30.90
51029;DHT22;37054;52.054;8.600;2022-10-10T15:41:01;25.90;31.00
51029;DHT22;37054;52.054;8.600;2022-10-10T15:43:27;25.80;31.10
51029;DHT22;37054;52.054;8.600;2022-10-10T15:45:53;25.80;31.30
51029;DHT22;37054;52.054;8.600;2022-10-10T15:48:20;25.60;31.40
51029;DHT22;37054;52.054;8.600;2022-10-10T15:50:46;25.50;31.50
51029;DHT22;37054;52.054;8.600;2022-10-10T15:53:13;25.50;31.70
51029;DHT22;37054;52.054;8.600;2022-10-10T15:55:42;25.30;31.80
51029;DHT22;37054;52.054;8.600;2022-10-10T15:58:07;25.30;32.00
51029;DHT22;37054;52.054;8.600;2022-10-10T16:00:36;25.20;32.20
51029;DHT22;37054;52.054;8.600;2022-10-10T16:03:01;25.00;32.40
51029;DHT22;37054;52.054;8.600;2022-10-10T16:05:27;25.00;32.50
51029;DHT22;37054;52.054;8.600;2022-10-10T16:07:53;25.00;32.60
51029;DHT22;37054;52.054;8.600;2022-10-10T16:10:19;24.90;32.90
51029;DHT22;37054;52.054;8.600;2022-10-10T16:12:44;24.80;33.20
51029;DHT22;37054;52.054;8.600;2022-10-10T16:15:10;24.60;34.80
51029;DHT22;37054;52.054;8.600;2022-10-10T16:17:35;24.30;36.40
51029;DHT22;37054;52.054;8.600;2022-10-10T16:20:01;24.00;38.40
51029;DHT22;37054;52.054;8.600;2022-10-10T16:22:27;23.80;39.90
51029;DHT22;37054;52.054;8.600;2022-10-10T16:24:52;23.60;41.10
51029;DHT22;37054;52.054;8.600;2022-10-10T16:27:18;23.50;42.10
51029;DHT22;37054;52.054;8.600;2022-10-10T16:29:43;23.40;42.90
51029;DHT22;37054;52.054;8.600;2022-10-10T16:32:10;23.30;43.50
51029;DHT22;37054;52.054;8.600;2022-10-10T16:34:36;23.20;44.00
51029;DHT22;37054;52.054;8.600;2022-10-10T16:37:01;23.10;44.10
51029;DHT22;37054;52.054;8.600;2022-10-10T16:39:27;23.10;44.10
51029;DHT22;37054;52.054;8.600;2022-10-10T16:41:52;23.00;43.80
51029;DHT22;37054;52.054;8.600;2022-10-10T16:44:18;22.90;43.70
51029;DHT22;37054;52.054;8.600;2022-10-10T16:46:43;22.80;43.80
51029;DHT22;37054;52.054;8.600;2022-10-10T16:49:10;22.60;44.20
51029;DHT22;37054;52.054;8.600;2022-10-10T16:51:35;22.30;46.30
51029;DHT22;37054;52.054;8.600;2022-10-10T16:54:01;22.00;47.70
51029;DHT22;37054;52.054;8.600;2022-10-10T16:56:27;21.80;49.00
51029;DHT22;37054;52.054;8.600;2022-10-10T16:58:53;21.50;50.50
51029;DHT22;37054;52.054;8.600;2022-10-10T17:01:19;21.30;51.90
51029;DHT22;37054;52.054;8.600;2022-10-10T17:03:45;21.10;53.40
51029;DHT22;37054;52.054;8.600;2022-10-10T17:06:12;21.00;54.50
51029;DHT22;37054;52.054;8.600;2022-10-10T17:08:40;20.80;55.80
51029;DHT22;37054;52.054;8.600;2022-10-10T17:11:06;20.70;56.50
51029;DHT22;37054;52.054;8.600;2022-10-10T17:13:33;20.60;57.50
51029;DHT22;37054;52.054;8.600;2022-10-10T17:15:59;20.40;57.90
51029;DHT22;37054;52.054;8.600;2022-10-10T17:18:27;20.30;58.30